Time;durP1;ratioP1;P1;durP2;ratioP2;P2;SDS_P1;SDS_P2;PMS_P1;PMS_P2;Temp;Humidity;BMP_temperature;BMP_pressure;BME280_temperature;BME280_humidity;BME280_pressure;Samples;Min_cycle;Max_cycle;Signal;HPM_P1;HPM_P2
2021/10/10 00:02:24;;;;;;;13.00;9.47;;;;;;;5.86;100.00;99143.25;5073691;28;20695;-67
2021/10/10 00:04:50;;;;;;;14.07;10.87;;;;;;;5.89;100.00;99140.50;5074006;28;20215;-67
2021/10/10 00:07:17;;;;;;;14.57;10.17;;;;;;;5.94;100.00;99142.09;5073787;28;20216;-65
2021/10/10 00:09:43;;;;;;;15.50;11.27;;;;;;;5.89;100.00;99145.75;5070863;28;20208;-67
2021/10/10 00:12:10;;;;;;;16.43;12.40;;;;;;;5.79;100.00;99149.56;5073641;28;20220;-67
2021/10/10 00:14:36;;;;;;;18.60;14.00;;;;;;;5.79;100.00;99145.19;5071907;28;20233;-67
2021/10/10 00:17:03;;;;;;;18.93;14.90;;;;;;;5.82;100.00;99146.88;5073255;28;20258;-67
2021/10/10 00:19:31;;;;;;;19.57;14.80;;;;;;;5.81;100.00;99148.63;5073494;28;20211;-67
2021/10/10 00:21:57;;;;;;;17.70;14.20;;;;;;;5.81;100.00;99153.03;5073368;28;20665;-67
2021/10/10 00:24:24;;;;;;;18.83;14.33;;;;;;;5.80;100.00;99148.72;5073639;28;20216;-67
2021/10/10 00:26:50;;;;;;;17.60;14.07;;;;;;;5.74;100.00;99151.50;5073392;28;20214;-67
2021/10/10 00:29:18;;;;;;;18.00;13.90;;;;;;;5.81;100.00;99147.78;5073566;28;20233;-67
2021/10/10 00:31:44;;;;;;;19.43;14.17;;;;;;;5.83;100.00;99148.59;5073457;28;20266;-67
2021/10/10 00:34:11;;;;;;;17.30;13.50;;;;;;;5.76;100.00;99139.19;5073432;28;20214;-65
2021/10/10 00:36:39;;;;;;;17.63;13.53;;;;;;;5.62;100.00;99144.88;5073218;28;20240;-65
2021/10/10 00:39:05;;;;;;;17.00;12.43;;;;;;;5.48;100.00;99149.75;5071534;28;20230;-65
2021/10/10 00:41:32;;;;;;;17.53;13.20;;;;;;;5.47;100.00;99140.16;5073274;28;20228;-66
2021/10/10 00:43:58;;;;;;;16.57;12.17;;;;;;;5.45;100.00;99136.72;5073218;28;20216;-67
2021/10/10 00:46:24;;;;;;;15.43;12.57;;;;;;;5.40;100.00;99141.28;5073310;28;20208;-67
2021/10/10 00:48:51;;;;;;;19.20;13.07;;;;;;;5.32;100.00;99138.03;5073294;28;20217;-67
2021/10/10 00:51:17;;;;;;;16.77;13.27;;;;;;;5.31;100.00;99138.94;5072846;28;20583;-67
2021/10/10 00:53:46;;;;;;;17.03;12.87;;;;;;;5.23;100.00;99132.22;5073292;28;20215;-67
2021/10/10 00:56:13;;;;;;;18.00;13.67;;;;;;;5.19;100.00;99133.25;5070152;28;20728;-67
2021/10/10 00:58:41;;;;;;;18.33;12.83;;;;;;;5.16;100.00;99131.59;5060651;28;20853;-67
2021/10/10 01:01:08;;;;;;;15.87;12.37;;;;;;;5.11;100.00;99127.38;5070385;28;20215;-67
2021/10/10 01:03:34;;;;;;;16.47;12.00;;;;;;;5.13;100.00;99129.06;5070396;28;20219;-67
2021/10/10 01:06:00;;;;;;;16.00;11.63;;;;;;;5.10;100.00;99126.53;5065868;28;20223;-67
2021/10/10 01:08:27;;;;;;;16.50;12.57;;;;;;;5.05;100.00;99132.81;5069838;28;20215;-67
2021/10/10 01:10:55;;;;;;;17.77;12.50;;;;;;;5.00;100.00;99124.28;5070231;28;20806;-67
2021/10/10 01:13:21;;;;;;;17.87;12.73;;;;;;;4.95;100.00;99127.00;5069954;28;20703;-67
2021/10/10 01:15:50;;;;;;;19.10;14.33;;;;;;;5.00;100.00;99125.09;5072878;28;20318;-67
2021/10/10 01:18:21;;;;;;;18.00;13.20;;;;;;;4.97;100.00;99126.97;5072708;28;20232;-66
2021/10/10 01:20:49;;;;;;;15.90;12.90;;;;;;;4.99;100.00;99117.28;5072750;28;20265;-67
2021/10/10 01:23:16;;;;;;;16.10;12.60;;;;;;;4.97;100.00;99109.50;5072675;28;20228;-67
2021/10/10 01:25:42;;;;;;;20.47;12.93;;;;;;;4.92;100.00;99114.03;5071026;28;20699;-67
2021/10/10 01:28:10;;;;;;;19.37;14.47;;;;;;;5.00;100.00;99114.63;5072899;28;20212;-65
2021/10/10 01:30:36;;;;;;;19.80;13.33;;;;;;;5.00;100.00;99113.78;5072550;28;20222;-65
2021/10/10 01:33:06;;;;;;;15.93;12.73;;;;;;;4.95;100.00;99107.84;5070953;28;20222;-65
2021/10/10 01:35:33;;;;;;;19.10;13.83;;;;;;;4.97;100.00;99109.50;5070036;28;20219;-65
2021/10/10 01:38:00;;;;;;;17.07;12.53;;;;;;;4.95;100.00;99099.97;5072698;28;20211;-65
2021/10/10 01:40:27;;;;;;;17.13;13.00;;;;;;;5.00;100.00;99105.94;5072284;28;20218;-65
2021/10/10 01:42:53;;;;;;;17.87;13.63;;;;;;;4.97;100.00;99106.88;5072744;28;20208;-65
2021/10/10 01:45:23;;;;;;;18.73;12.43;;;;;;;4.92;100.00;99108.78;5072615;28;20238;-65
2021/10/10 01:47:49;;;;;;;17.57;13.60;;;;;;;4.90;100.00;99096.63;5072685;28;20222;-65
2021/10/10 01:50:16;;;;;;;22.23;14.00;;;;;;;4.86;100.00;99100.25;5072621;28;20219;-65
2021/10/10 01:52:46;;;;;;;18.70;13.73;;;;;;;4.74;100.00;99088.41;5072606;28;20212;-65
2021/10/10 01:55:14;;;;;;;18.53;13.20;;;;;;;4.76;100.00;99094.44;5069514;28;20211;-65
2021/10/10 01:57:41;;;;;;;17.90;12.57;;;;;;;4.75;100.00;99097.97;5070464;28;20700;-65
2021/10/10 02:00:09;;;;;;;20.63;13.43;;;;;;;4.74;100.00;99098.88;5072334;28;20696;-66
2021/10/10 02:02:36;;;;;;;17.90;12.90;;;;;;;4.76;100.00;99104.06;5074599;28;20230;-65
2021/10/10 02:05:03;;;;;;;17.40;12.83;;;;;;;4.73;100.00;99105.03;5073582;28;20215;-66
2021/10/10 02:07:30;;;;;;;18.03;12.50;;;;;;;4.69;100.00;99097.28;5075829;28;20220;-67
2021/10/10 02:09:56;;;;;;;17.03;12.87;;;;;;;4.64;100.00;99094.81;5075777;28;20233;-66
2021/10/10 02:12:24;;;;;;;17.63;13.20;;;;;;;4.70;100.00;99097.25;5075770;28;20215;-65
2021/10/10 02:14:51;;;;;;;16.47;13.17;;;;;;;4.62;100.00;99107.09;5072939;28;20238;-67
2021/10/10 02:17:19;;;;;;;17.20;13.20;;;;;;;4.63;100.00;99103.56;5075926;28;20242;-65
2021/10/10 02:19:45;;;;;;;19.07;12.87;;;;;;;4.64;100.00;99102.66;5075927;28;20306;-68
2021/10/10 02:22:12;;;;;;;18.20;13.50;;;;;;;4.60;100.00;99103.69;5075912;28;20206;-66
2021/10/10 02:24:39;;;;;;;19.93;14.57;;;;;;;4.66;100.00;99103.50;5074130;28;20217;-65
2021/10/10 02:27:05;;;;;;;19.73;13.17;;;;;;;4.69;100.00;99100.78;5075714;28;20217;-66
2021/10/10 02:29:33;;;;;;;20.20;14.10;;;;;;;4.73;100.00;99096.28;5075898;28;20218;-66
2021/10/10 02:31:59;;;;;;;20.03;12.70;;;;;;;4.71;100.00;99104.19;5075699;28;20222;-66
2021/10/10 02:34:26;;;;;;;18.47;13.03;;;;;;;4.76;100.00;99094.44;5075404;28;20684;-66
2021/10/10 02:36:52;;;;;;;18.67;13.20;;;;;;;4.84;100.00;99095.03;5075452;28;20242;-66
2021/10/10 02:39:19;;;;;;;17.87;12.83;;;;;;;4.84;100.00;99108.13;5075263;28;20211;-66
2021/10/10 02:41:45;;;;;;;20.43;14.00;;;;;;;4.90;100.00;99100.09;5072828;28;20215;-66
2021/10/10 02:44:12;;;;;;;19.50;12.97;;;;;;;4.88;100.00;99099.28;5075210;28;20215;-65
2021/10/10 02:46:40;;;;;;;17.67;12.13;;;;;;;4.88;100.00;99104.53;5075405;28;20594;-65
2021/10/10 02:49:06;;;;;;;17.60;12.30;;;;;;;4.86;100.00;99106.34;5073875;28;20215;-66
2021/10/10 02:51:33;;;;;;;17.83;12.30;;;;;;;4.89;100.00;99110.66;5074869;28;20218;-66
2021/10/10 02:53:59;;;;;;;17.37;13.10;;;;;;;4.88;100.00;99109.78;5075252;28;20215;-66
2021/10/10 02:56:26;;;;;;;16.67;11.80;;;;;;;4.86;100.00;99105.47;5074949;28;20731;-66
2021/10/10 02:58:52;;;;;;;15.80;11.93;;;;;;;4.82;100.00;99103.88;5075304;28;20294;-66
2021/10/10 03:01:19;;;;;;;17.83;12.57;;;;;;;4.71;100.00;99106.81;5075153;28;20217;-65
2021/10/10 03:03:47;;;;;;;17.13;12.77;;;;;;;4.68;100.00;99101.69;5075276;28;20249;-66
2021/10/10 03:06:13;;;;;;;17.20;12.13;;;;;;;4.59;100.00;99112.41;5074891;28;20698;-65
2021/10/10 03:08:40;;;;;;;15.87;11.43;;;;;;;4.61;100.00;99105.41;5074949;28;20225;-65
2021/10/10 03:11:06;;;;;;;16.53;11.63;;;;;;;4.61;100.00;99110.63;5075045;28;20215;-65
2021/10/10 03:13:33;;;;;;;18.60;11.83;;;;;;;4.58;100.00;99115.94;5074578;28;20221;-66
2021/10/10 03:16:00;;;;;;;17.73;13.00;;;;;;;4.54;100.00;99114.34;5073202;28;20238;-65
2021/10/10 03:18:27;;;;;;;16.67;11.70;;;;;;;4.51;100.00;99109.19;5074817;28;20222;-66
2021/10/10 03:20:55;;;;;;;17.97;12.97;;;;;;;4.49;100.00;99116.22;5074830;28;20211;-67
2021/10/10 03:23:21;;;;;;;15.17;10.87;;;;;;;4.48;100.00;99117.13;5074407;28;20220;-65
2021/10/10 03:25:48;;;;;;;14.00;11.13;;;;;;;4.49;100.00;99110.13;5074720;28;20598;-66
2021/10/10 03:28:14;;;;;;;15.73;11.67;;;;;;;4.39;100.00;99106.91;5074691;28;20216;-66
2021/10/10 03:30:41;;;;;;;17.17;12.33;;;;;;;4.39;100.00;99109.53;5074344;28;20223;-66
2021/10/10 03:33:08;;;;;;;15.93;11.80;;;;;;;4.37;100.00;99106.13;5074550;28;20225;-66
2021/10/10 03:35:34;;;;;;;16.67;11.93;;;;;;;4.32;100.00;99101.91;5074661;28;20257;-65
2021/10/10 03:38:02;;;;;;;15.33;11.87;;;;;;;4.38;100.00;99099.97;5074479;28;20233;-66
2021/10/10 03:40:29;;;;;;;16.27;11.67;;;;;;;4.38;100.00;99106.97;5074598;28;20218;-66
2021/10/10 03:42:56;;;;;;;16.20;12.37;;;;;;;4.41;100.00;99094.63;5072805;28;20218;-67
2021/10/10 03:45:22;;;;;;;15.40;12.07;;;;;;;4.28;100.00;99095.91;5074250;28;20221;-66
2021/10/10 03:47:49;;;;;;;16.57;11.17;;;;;;;4.33;100.00;99107.09;5074308;28;20213;-66
2021/10/10 03:50:15;;;;;;;17.63;11.97;;;;;;;4.36;100.00;99098.31;5074225;28;20208;-66
2021/10/10 03:52:42;;;;;;;16.50;12.53;;;;;;;4.25;100.00;99098.63;5073996;28;20677;-66
2021/10/10 03:55:28;;;;;;;14.97;11.97;;;;;;;4.11;100.00;99099.91;5071153;28;20216;-66
2021/10/10 03:57:55;;;;;;;16.23;12.20;;;;;;;3.99;100.00;99093.28;5074005;28;20292;-66
2021/10/10 04:00:22;;;;;;;17.80;12.43;;;;;;;3.94;100.00;99094.28;5073872;28;20224;-66
2021/10/10 04:02:48;;;;;;;20.23;13.80;;;;;;;3.92;100.00;99099.56;5073664;28;20208;-66
2021/10/10 04:05:23;;;;;;;17.23;11.80;;;;;;;3.93;100.00;99100.41;5073588;28;20227;-66
2021/10/10 04:07:50;;;;;;;17.70;13.47;;;;;;;3.92;100.00;99096.09;5072464;28;20308;-66
2021/10/10 04:10:19;;;;;;;18.13;12.63;;;;;;;3.86;100.00;99104.13;5073839;28;20221;-66
2021/10/10 04:12:45;;;;;;;18.23;12.70;;;;;;;3.91;100.00;99092.63;5073586;28;20216;-66
2021/10/10 04:15:12;;;;;;;17.13;12.67;;;;;;;3.87;100.00;99095.34;5073662;28;20243;-66
2021/10/10 04:17:39;;;;;;;18.17;13.50;;;;;;;3.83;100.00;99091.09;5073293;28;20249;-66
2021/10/10 04:20:07;;;;;;;19.47;13.50;;;;;;;3.76;100.00;99098.28;5073656;28;20219;-66
2021/10/10 04:22:34;;;;;;;17.90;12.83;;;;;;;3.74;100.00;99097.44;5073521;28;20218;-65
2021/10/10 04:25:00;;;;;;;20.27;13.57;;;;;;;3.83;100.00;99097.22;5073113;28;20215;-65
2021/10/10 04:27:28;;;;;;;23.00;14.77;;;;;;;3.82;100.00;99098.09;5073358;28;20218;-65
2021/10/10 04:29:54;;;;;;;18.43;13.23;;;;;;;3.75;100.00;99099.19;5073643;28;20218;-65
2021/10/10 04:32:21;;;;;;;18.47;13.23;;;;;;;3.78;100.00;99096.47;5073254;28;20209;-65
2021/10/10 04:34:47;;;;;;;18.10;13.63;;;;;;;3.77;100.00;99096.50;5071498;28;20226;-65
2021/10/10 04:37:14;;;;;;;21.13;13.20;;;;;;;3.75;100.00;99098.31;5073389;28;20601;-65
2021/10/10 04:39:40;;;;;;;20.83;13.03;;;;;;;3.80;100.00;99101.66;5073389;28;20240;-65
2021/10/10 04:42:07;;;;;;;17.73;13.30;;;;;;;3.72;100.00;99094.03;5073029;28;20214;-65
2021/10/10 04:44:35;;;;;;;19.93;13.43;;;;;;;3.70;100.00;99093.22;5073144;28;20222;-65
2021/10/10 04:47:02;;;;;;;18.30;12.97;;;;;;;3.66;100.00;99099.41;5073422;28;20229;-65
2021/10/10 04:49:29;;;;;;;18.83;13.40;;;;;;;3.68;100.00;99092.38;5073249;28;20209;-65
2021/10/10 04:51:55;;;;;;;18.10;13.33;;;;;;;3.63;100.00;99088.19;5073161;28;20221;-65
2021/10/10 04:54:22;;;;;;;18.37;12.53;;;;;;;3.62;100.00;99092.53;5073140;28;20214;-65
2021/10/10 04:56:48;;;;;;;16.03;12.50;;;;;;;3.61;100.00;99085.59;5073080;28;20215;-65
2021/10/10 04:59:15;;;;;;;19.43;13.63;;;;;;;3.62;100.00;99087.31;5071321;28;20209;-65
2021/10/10 05:01:43;;;;;;;18.60;12.80;;;;;;;3.62;100.00;99096.94;5073228;28;20218;-65
2021/10/10 05:04:09;;;;;;;20.00;13.23;;;;;;;3.54;100.00;99096.28;5073113;28;20577;-66
2021/10/10 05:06:36;;;;;;;16.57;13.43;;;;;;;3.50;100.00;99098.13;5072834;28;20210;-65
2021/10/10 05:09:02;;;;;;;18.43;12.50;;;;;;;3.47;100.00;99092.94;5072840;28;20225;-65
2021/10/10 05:11:29;;;;;;;18.47;13.07;;;;;;;3.52;100.00;99096.31;5070162;28;20220;-65
2021/10/10 05:13:55;;;;;;;16.60;13.17;;;;;;;3.48;100.00;99099.88;5072540;28;20214;-65
2021/10/10 05:16:22;;;;;;;16.90;12.43;;;;;;;3.37;100.00;99095.84;5073091;28;20250;-65
2021/10/10 05:18:50;;;;;;;18.13;13.17;;;;;;;3.35;100.00;99098.50;5072894;28;20244;-65
2021/10/10 05:21:17;;;;;;;18.10;12.93;;;;;;;3.30;100.00;99100.34;5072563;28;20698;-65
2021/10/10 05:23:44;;;;;;;16.63;12.57;;;;;;;3.29;100.00;99095.16;5072896;28;20220;-65
2021/10/10 05:26:11;;;;;;;18.27;12.50;;;;;;;3.30;100.00;99099.50;5071301;28;20215;-65
2021/10/10 05:28:38;;;;;;;20.47;12.57;;;;;;;3.33;100.00;99105.53;5072577;28;20219;-65
2021/10/10 05:31:04;;;;;;;19.23;13.57;;;;;;;3.31;100.00;99101.22;5072527;28;20680;-65
2021/10/10 05:33:31;;;;;;;19.67;13.77;;;;;;;3.21;100.00;99108.44;5072797;28;20222;-65
2021/10/10 05:35:59;;;;;;;18.30;13.23;;;;;;;3.26;100.00;99106.56;5072885;28;20245;-65
2021/10/10 05:38:26;;;;;;;15.90;12.30;;;;;;;3.28;100.00;99107.38;5076511;28;20244;-65
2021/10/10 05:40:52;;;;;;;16.60;12.83;;;;;;;3.17;100.00;99109.41;5076737;28;20247;-65
2021/10/10 05:43:19;;;;;;;17.67;13.27;;;;;;;3.15;100.00;99107.72;5076624;28;20228;-65
2021/10/10 05:45:45;;;;;;;18.60;13.17;;;;;;;3.14;100.00;99114.72;5076758;28;20220;-65
2021/10/10 05:48:12;;;;;;;20.23;13.33;;;;;;;3.09;100.00;99111.34;5076276;28;20678;-65
2021/10/10 05:50:38;;;;;;;17.87;13.47;;;;;;;3.11;100.00;99114.75;5076277;28;20217;-65
2021/10/10 05:53:08;;;;;;;19.73;14.63;;;;;;;3.11;100.00;99113.94;5074645;28;20219;-65
2021/10/10 05:55:36;;;;;;;17.67;12.40;;;;;;;3.09;100.00;99116.56;5076081;28;20208;-65
2021/10/10 05:58:04;;;;;;;16.40;12.50;;;;;;;3.14;100.00;99116.44;5076012;28;20726;-65
2021/10/10 06:00:31;;;;;;;20.17;14.47;;;;;;;3.05;100.00;99119.28;5076322;28;20224;-65
2021/10/10 06:02:57;;;;;;;20.40;13.73;;;;;;;3.13;100.00;99123.41;5075945;28;20238;-65
2021/10/10 06:05:24;;;;;;;17.10;12.13;;;;;;;3.21;100.00;99125.84;5076214;28;20215;-65
2021/10/10 06:07:50;;;;;;;18.03;12.53;;;;;;;3.22;100.00;99120.59;5075861;28;20683;-65
2021/10/10 06:10:18;;;;;;;17.80;12.67;;;;;;;3.23;100.00;99124.91;5076058;28;20223;-65
2021/10/10 06:12:45;;;;;;;15.57;11.97;;;;;;;3.26;100.00;99124.00;5076056;28;20208;-65
2021/10/10 06:15:11;;;;;;;19.37;13.20;;;;;;;3.32;100.00;99127.31;5075773;28;20247;-65
2021/10/10 06:17:38;;;;;;;16.87;12.30;;;;;;;3.37;100.00;99133.25;5073979;28;20277;-65
2021/10/10 06:20:07;;;;;;;16.17;12.27;;;;;;;3.47;100.00;99124.31;5075979;28;20210;-66
2021/10/10 06:22:34;;;;;;;17.20;12.13;;;;;;;3.52;100.00;99121.56;5075929;28;20213;-64
2021/10/10 06:25:01;;;;;;;20.63;14.83;;;;;;;3.68;100.00;99128.97;5073177;28;20225;-64
2021/10/10 06:27:29;;;;;;;22.73;16.53;;;;;;;3.82;100.00;99129.50;5075946;28;20237;-64
2021/10/10 06:29:56;;;;;;;21.03;15.27;;;;;;;3.90;100.00;99140.59;5075879;28;20225;-64
2021/10/10 06:32:22;;;;;;;20.97;15.53;;;;;;;3.95;100.00;99132.59;5075442;28;21373;-64
2021/10/10 06:34:50;;;;;;;19.10;14.57;;;;;;;4.05;100.00;99134.97;5062150;28;20220;-65
2021/10/10 06:37:16;;;;;;;20.50;14.10;;;;;;;4.06;100.00;99139.28;5075686;28;20573;-64
2021/10/10 06:39:43;;;;;;;18.27;13.13;;;;;;;4.12;100.00;99135.63;5075471;28;20236;-64
2021/10/10 06:42:09;;;;;;;19.10;12.47;;;;;;;4.21;100.00;99136.22;5075614;28;20224;-64
2021/10/10 06:44:37;;;;;;;15.53;12.00;;;;;;;4.21;100.00;99136.22;5073859;28;20225;-64
2021/10/10 06:47:04;;;;;;;18.27;12.53;;;;;;;4.27;100.00;99130.00;5075193;28;20213;-64
2021/10/10 06:49:31;;;;;;;15.33;11.93;;;;;;;4.33;100.00;99137.66;5075411;28;20222;-65
2021/10/10 06:51:57;;;;;;;15.50;12.00;;;;;;;4.32;100.00;99139.41;5075327;28;20217;-64
2021/10/10 06:54:24;;;;;;;17.63;12.80;;;;;;;4.40;100.00;99142.66;5075319;28;20210;-64
2021/10/10 06:56:50;;;;;;;17.73;12.67;;;;;;;4.42;100.00;99143.50;5075232;28;20217;-64
2021/10/10 06:59:16;;;;;;;18.50;12.80;;;;;;;4.51;100.00;99134.47;5075164;28;20237;-64
2021/10/10 07:01:44;;;;;;;17.27;12.53;;;;;;;4.58;100.00;99142.13;5074989;28;20226;-64
2021/10/10 07:04:11;;;;;;;18.20;13.50;;;;;;;4.61;100.00;99139.44;5075256;28;20231;-65
2021/10/10 07:06:37;;;;;;;16.93;12.87;;;;;;;4.72;100.00;99139.09;5075127;28;20214;-64
2021/10/10 07:09:04;;;;;;;18.03;13.53;;;;;;;4.80;100.00;99148.44;5073791;28;20587;-64
2021/10/10 07:11:30;;;;;;;19.73;13.70;;;;;;;4.92;100.00;99150.69;5074141;28;20703;-64
2021/10/10 07:13:57;;;;;;;16.30;11.60;;;;;;;4.91;100.00;99141.13;5074920;28;20241;-64
2021/10/10 07:16:27;;;;;;;19.03;14.47;;;;;;;4.96;100.00;99144.44;5074946;28;20234;-65
2021/10/10 07:18:55;;;;;;;18.10;13.30;;;;;;;4.99;100.00;99144.34;5074814;28;20242;-64
2021/10/10 07:21:38;;;;;;;18.50;13.60;;;;;;;5.03;100.00;99148.59;5072755;28;20325;-65
2021/10/10 07:26:49;;;;;;;16.63;12.90;;;;;;;5.19;100.00;99152.44;5071792;28;20303;-65
2021/10/10 07:29:15;;;;;;;18.00;12.67;;;;;;;5.29;100.00;99153.88;5070291;28;20207;-65
2021/10/10 07:31:42;;;;;;;17.27;13.37;;;;;;;5.38;100.00;99158.81;5070608;28;20222;-65
2021/10/10 07:34:10;;;;;;;17.83;13.43;;;;;;;5.48;100.00;99162.84;5071531;28;20223;-65
2021/10/10 07:36:36;;;;;;;19.83;13.43;;;;;;;5.55;100.00;99151.25;5069946;28;20208;-65
2021/10/10 07:39:03;;;;;;;17.63;13.03;;;;;;;5.63;100.00;99151.84;5068618;28;20243;-65
2021/10/10 07:41:30;;;;;;;19.53;13.70;;;;;;;5.75;100.00;99159.31;5071676;28;20216;-65
2021/10/10 07:43:56;;;;;;;19.10;12.77;;;;;;;5.85;100.00;99160.75;5071514;28;20211;-65
2021/10/10 07:46:32;;;;;;;19.03;13.20;;;;;;;5.94;100.00;99155.19;5074248;28;20219;-65
2021/10/10 07:48:59;;;;;;;18.60;13.50;;;;;;;6.05;100.00;99149.56;5070316;28;20637;-65
2021/10/10 07:51:28;;;;;;;19.00;14.13;;;;;;;6.16;100.00;99156.16;5070501;28;20674;-65
2021/10/10 07:53:55;;;;;;;19.67;13.10;;;;;;;6.25;100.00;99155.84;5071191;28;20219;-65
2021/10/10 07:56:21;;;;;;;19.67;14.03;;;;;;;6.37;100.00;99158.03;5071359;28;20219;-65
2021/10/10 07:58:48;;;;;;;16.77;13.07;;;;;;;6.42;100.00;99156.06;5070908;28;20735;-65
2021/10/10 08:01:14;;;;;;;17.43;14.10;;;;;;;6.55;100.00;99159.97;5066601;28;20300;-66
2021/10/10 08:03:41;;;;;;;19.50;13.93;;;;;;;6.68;100.00;99155.97;5068550;28;20220;-65
2021/10/10 08:06:09;;;;;;;20.87;13.40;;;;;;;6.81;100.00;99157.22;5069876;28;20216;-66
2021/10/10 08:08:37;;;;;;;17.50;12.90;;;;;;;6.89;100.00;99165.66;5067333;28;20215;-65
2021/10/10 08:11:04;;;;;;;17.77;13.10;;;;;;;6.97;100.00;99153.06;5065043;28;20258;-65
2021/10/10 08:13:30;;;;;;;21.17;13.30;;;;;;;7.00;100.00;99158.22;5067024;28;20730;-65
2021/10/10 08:15:57;;;;;;;20.70;13.70;;;;;;;7.16;100.00;99161.97;5070409;28;20243;-66
2021/10/10 08:18:23;;;;;;;16.43;12.03;;;;;;;7.22;100.00;99163.50;5072479;28;20235;-66
2021/10/10 08:20:50;;;;;;;16.67;12.60;;;;;;;7.30;100.00;99163.13;5072138;28;20699;-66
2021/10/10 08:23:16;;;;;;;18.33;13.57;;;;;;;7.40;100.00;99164.47;5071633;28;20215;-66
2021/10/10 08:25:44;;;;;;;17.73;13.17;;;;;;;7.52;100.00;99157.84;5072662;28;20330;-67
2021/10/10 08:28:10;;;;;;;14.93;12.17;;;;;;;7.58;100.00;99157.59;5072227;28;20224;-65
2021/10/10 08:30:37;;;;;;;18.93;13.23;;;;;;;7.65;100.00;99159.94;5070752;28;20300;-65
2021/10/10 08:33:04;;;;;;;17.77;13.53;;;;;;;7.68;100.00;99158.94;5072295;28;20244;-65
2021/10/10 08:35:32;;;;;;;15.90;12.40;;;;;;;7.79;100.00;99162.00;5072173;28;20225;-65
2021/10/10 08:37:58;;;;;;;17.50;13.10;;;;;;;7.82;100.00;99156.59;5072387;28;20274;-65
2021/10/10 08:40:25;;;;;;;17.30;12.57;;;;;;;7.89;100.00;99158.91;5071646;28;20405;-65
2021/10/10 08:42:59;;;;;;;17.17;12.50;;;;;;;7.95;100.00;99161.28;5072233;28;20236;-65
2021/10/10 08:45:29;;;;;;;15.17;11.67;;;;;;;8.08;100.00;99166.88;5071677;28;20225;-65
2021/10/10 08:47:55;;;;;;;17.50;13.50;;;;;;;8.18;100.00;99166.41;5072393;28;20211;-65
2021/10/10 08:50:24;;;;;;;18.70;12.77;;;;;;;8.30;100.00;99171.19;5071952;28;20224;-65
2021/10/10 08:52:52;;;;;;;16.73;12.77;;;;;;;8.41;100.00;99173.34;5071547;28;20228;-65
2021/10/10 08:55:19;;;;;;;15.53;11.87;;;;;;;8.44;100.00;99179.31;5070668;28;20241;-65
2021/10/10 08:57:46;;;;;;;17.63;13.20;;;;;;;8.52;100.00;99176.38;5072258;28;20547;-65
2021/10/10 09:00:17;;;;;;;17.00;13.00;;;;;;;8.60;100.00;99179.50;5071678;28;20614;-66
2021/10/10 09:02:47;;;;;;;17.47;12.47;;;;;;;8.72;100.00;99169.28;5071783;28;20229;-66
2021/10/10 09:05:14;;;;;;;16.23;12.63;;;;;;;8.75;100.00;99171.75;5072265;28;20222;-66
2021/10/10 09:07:41;;;;;;;17.40;12.23;;;;;;;8.84;100.00;99167.84;5062869;28;20748;-66
2021/10/10 09:10:27;;;;;;;15.70;12.30;;;;;;;8.90;100.00;99165.81;5067533;28;20218;-67
2021/10/10 09:13:05;;;;;;;13.97;11.53;;;;;;;9.00;100.00;99164.44;5060807;28;20216;-66
2021/10/10 09:15:34;;;;;;;15.63;12.20;;;;;;;9.05;100.00;99166.88;5070640;28;20293;-66
2021/10/10 09:18:03;;;;;;;16.67;13.17;;;;;;;9.13;100.00;99159.44;5071730;28;20218;-65
2021/10/10 09:20:32;;;;;;;16.57;11.77;;;;;;;9.26;100.00;99150.03;5071455;28;20241;-65
2021/10/10 09:23:00;;;;;;;19.37;12.73;;;;;;;9.43;100.00;99163.25;5069050;28;20229;-65
2021/10/10 09:25:26;;;;;;;16.20;11.87;;;;;;;9.49;100.00;99147.97;5071834;28;20668;-66
2021/10/10 09:27:53;;;;;;;16.50;11.63;;;;;;;9.55;100.00;99152.13;5071808;28;20587;-65
2021/10/10 09:30:22;;;;;;;15.83;12.17;;;;;;;9.59;100.00;99153.66;5070723;28;20856;-66
2021/10/10 09:32:55;;;;;;;15.77;11.93;;;;;;;9.79;98.23;99153.53;5071771;28;20767;-66
2021/10/10 09:35:27;;;;;;;16.63;12.23;;;;;;;9.93;97.67;99153.69;5071984;28;20212;-66
2021/10/10 09:38:10;;;;;;;15.77;11.77;;;;;;;9.97;96.61;99152.63;5070884;28;20219;-66
2021/10/10 09:40:41;;;;;;;16.23;12.17;;;;;;;9.99;94.23;99158.66;5069167;28;20548;-65
2021/10/10 09:43:07;;;;;;;14.87;12.10;;;;;;;10.20;93.81;99157.59;5071707;28;20215;-65
2021/10/10 09:45:41;;;;;;;15.83;11.77;;;;;;;10.30;92.37;99159.72;5063768;28;20317;-65
2021/10/10 09:48:09;;;;;;;15.10;11.93;;;;;;;10.39;89.26;99158.38;5070108;28;20211;-65
2021/10/10 09:50:37;;;;;;;14.90;11.30;;;;;;;10.48;88.30;99153.47;5071639;28;20245;-66
2021/10/10 09:53:06;;;;;;;18.10;12.57;;;;;;;10.52;87.49;99162.09;5070132;28;20221;-66
2021/10/10 09:55:34;;;;;;;15.10;11.83;;;;;;;10.62;86.62;99155.34;5070967;28;20219;-66
2021/10/10 09:58:01;;;;;;;18.07;11.50;;;;;;;10.66;86.36;99156.91;5070983;28;20733;-66
2021/10/10 10:00:29;;;;;;;15.07;10.67;;;;;;;10.75;85.61;99161.69;5070054;28;20235;-66
2021/10/10 10:03:01;;;;;;;17.13;12.10;;;;;;;10.84;83.81;99155.91;5071323;28;20588;-66
2021/10/10 10:05:31;;;;;;;15.70;10.60;;;;;;;10.92;85.39;99159.88;5070986;28;20210;-66
2021/10/10 10:08:00;;;;;;;16.90;11.77;;;;;;;11.08;82.78;99154.59;5070541;28;20222;-66
2021/10/10 10:10:29;;;;;;;15.77;11.10;;;;;;;11.14;81.18;99155.09;5065157;28;20676;-66
2021/10/10 10:12:57;;;;;;;14.00;10.63;;;;;;;11.16;82.08;99147.06;5066306;28;20231;-66
2021/10/10 10:15:27;;;;;;;15.93;11.57;;;;;;;11.46;78.92;99145.34;5056593;28;20614;-66
2021/10/10 10:17:54;;;;;;;13.53;10.53;;;;;;;11.35;80.45;99148.63;5070891;28;20702;-66
2021/10/10 10:20:22;;;;;;;15.47;11.00;;;;;;;11.42;78.64;99143.81;5070769;28;20621;-66
2021/10/10 10:22:52;;;;;;;15.17;10.53;;;;;;;11.48;78.47;99146.09;5070707;28;20222;-66
2021/10/10 10:25:19;;;;;;;13.23;10.63;;;;;;;11.48;77.67;99143.47;5074567;28;20265;-66
2021/10/10 10:27:46;;;;;;;13.00;9.97;;;;;;;11.53;76.65;99141.41;5074151;28;20705;-67
2021/10/10 10:30:14;;;;;;;13.97;11.00;;;;;;;11.53;77.04;99136.13;5073698;28;20214;-66
2021/10/10 10:32:40;;;;;;;13.67;10.37;;;;;;;11.59;77.23;99138.44;5074267;28;20213;-66
2021/10/10 10:35:11;;;;;;;15.07;10.90;;;;;;;11.73;75.48;99143.81;5074243;28;20702;-66
2021/10/10 10:37:50;;;;;;;14.63;10.87;;;;;;;11.85;75.05;99140.44;5073962;28;20217;-66
2021/10/10 10:40:39;;;;;;;18.97;11.90;;;;;;;11.84;73.86;99144.91;5074447;28;20238;-66
2021/10/10 10:43:07;;;;;;;14.70;10.63;;;;;;;11.81;76.37;99136.28;5069802;28;20293;-66
2021/10/10 10:45:37;;;;;;;13.13;9.93;;;;;;;11.79;73.88;99140.81;5073570;28;20220;-66
2021/10/10 10:48:06;;;;;;;14.13;9.60;;;;;;;11.75;73.05;99131.34;5074216;28;20211;-66
2021/10/10 10:50:34;;;;;;;12.60;10.30;;;;;;;11.84;72.87;99133.44;5073837;28;20222;-66
2021/10/10 10:53:04;;;;;;;13.43;9.93;;;;;;;11.76;73.12;99127.75;5072831;28;20240;-66
2021/10/10 10:55:32;;;;;;;13.03;9.43;;;;;;;11.80;75.38;99134.56;5073866;28;20215;-66
2021/10/10 10:58:00;;;;;;;15.83;10.93;;;;;;;12.03;73.54;99131.41;5073961;28;20215;-66
2021/10/10 11:00:29;;;;;;;12.37;10.17;;;;;;;12.10;74.75;99130.97;5072798;28;20235;-66
2021/10/10 11:03:02;;;;;;;13.63;9.73;;;;;;;12.16;73.31;99127.94;5072751;28;20211;-66
2021/10/10 11:05:34;;;;;;;12.97;9.67;;;;;;;12.17;73.53;99124.34;5073407;28;20684;-66
2021/10/10 11:08:03;;;;;;;12.07;9.70;;;;;;;12.19;74.47;99121.59;5071090;28;20696;-66
2021/10/10 11:10:31;;;;;;;12.10;9.53;;;;;;;12.27;72.78;99124.63;5073767;28;20215;-66
2021/10/10 11:13:18;;;;;;;12.03;10.10;;;;;;;12.27;72.60;99127.28;5072851;28;20493;-66
2021/10/10 11:15:52;;;;;;;15.77;11.13;;;;;;;12.08;71.57;99114.31;5058173;28;20252;-66
2021/10/10 11:18:19;;;;;;;13.87;10.10;;;;;;;12.18;72.37;99119.91;5073700;28;20237;-66
2021/10/10 11:20:54;;;;;;;11.77;9.77;;;;;;;12.37;71.95;99120.50;5073951;28;20242;-66
2021/10/10 11:23:22;;;;;;;13.20;9.83;;;;;;;12.51;70.85;99107.25;5069338;28;20211;-66